createdAt,value
2018-07-11T00:02:18.656Z,97903.25
2018-07-11T00:04:48.040Z,97900.67
2018-07-11T00:07:17.362Z,97900.73
2018-07-11T00:09:46.713Z,97902.86
2018-07-11T00:12:16.059Z,97897.56
2018-07-11T00:14:45.391Z,97902.95
2018-07-11T00:17:14.817Z,97901.56
2018-07-11T00:19:44.576Z,97906.06
2018-07-11T00:22:14.092Z,97902.94
2018-07-11T00:24:43.395Z,97903.72
2018-07-11T00:27:12.844Z,97905.26
2018-07-11T00:29:42.188Z,97909.88
2018-07-11T00:32:11.526Z,97915.80
2018-07-11T00:34:40.888Z,97908.72
2018-07-11T00:37:10.321Z,97912.27
2018-07-11T00:39:39.645Z,97914.72
2018-07-11T00:42:09.172Z,97913.20
2018-07-11T00:44:38.516Z,97913.09
2018-07-11T00:47:07.843Z,97909.23
2018-07-11T00:49:37.201Z,97918.08
2018-07-11T00:52:06.526Z,97916.22
2018-07-11T00:54:35.889Z,97911.00
2018-07-11T00:57:05.248Z,97915.52
2018-07-11T00:59:34.595Z,97912.83
2018-07-11T01:02:07.504Z,97911.94
2018-07-11T01:04:36.896Z,97916.72
2018-07-11T01:07:07.439Z,97915.74
2018-07-11T01:09:45.008Z,97911.84
2018-07-11T01:12:14.376Z,97908.77
2018-07-11T01:14:44.082Z,97916.63
2018-07-11T01:17:18.515Z,97910.83
2018-07-11T01:19:48.711Z,97912.78
2018-07-11T01:22:18.054Z,97913.78
2018-07-11T01:24:47.409Z,97915.65
2018-07-11T01:27:16.767Z,97917.34
2018-07-11T01:29:46.115Z,97916.31
2018-07-11T01:32:15.448Z,97926.04
2018-07-11T01:34:44.781Z,97920.75
2018-07-11T01:37:14.164Z,97918.11
2018-07-11T01:39:43.528Z,97919.91
2018-07-11T01:42:12.908Z,97922.87
2018-07-11T01:44:42.687Z,97923.00
2018-07-11T01:47:13.021Z,97925.91
2018-07-11T01:49:42.415Z,97921.45
2018-07-11T01:52:28.759Z,97918.89
2018-07-11T01:54:58.140Z,97921.98
2018-07-11T01:57:27.479Z,97915.78
2018-07-11T01:59:58.139Z,97923.11
2018-07-11T02:02:27.503Z,97923.95
2018-07-11T02:04:56.848Z,97923.40
2018-07-11T02:07:26.211Z,97928.31
2018-07-11T02:09:55.634Z,97924.28
2018-07-11T02:12:24.955Z,97924.23
2018-07-11T02:14:59.687Z,97915.48
2018-07-11T02:17:29.039Z,97919.39
2018-07-11T02:19:58.472Z,97922.50
2018-07-11T02:22:28.208Z,97918.75
2018-07-11T02:24:57.544Z,97914.90
2018-07-11T02:27:26.885Z,97919.13
2018-07-11T02:29:56.212Z,97917.86
2018-07-11T02:32:25.720Z,97922.30
2018-07-11T02:34:55.067Z,97915.98
2018-07-11T02:37:24.455Z,97921.20
2018-07-11T02:39:53.816Z,97921.00
2018-07-11T02:42:23.180Z,97925.24
2018-07-11T02:44:52.772Z,97921.44
2018-07-11T02:47:27.472Z,97924.02
2018-07-11T02:49:56.820Z,97920.48
2018-07-11T02:52:26.232Z,97923.22
2018-07-11T02:54:55.573Z,97919.86
2018-07-11T02:57:25.056Z,97920.66
2018-07-11T02:59:54.396Z,97920.70
2018-07-11T03:02:23.779Z,97921.05
2018-07-11T03:04:53.188Z,97926.98
2018-07-11T03:07:22.493Z,97925.75
2018-07-11T03:09:51.876Z,97935.37
2018-07-11T03:12:21.216Z,97923.40
2018-07-11T03:14:51.949Z,97925.86
2018-07-11T03:17:21.786Z,97930.28
2018-07-11T03:19:51.136Z,97937.61
2018-07-11T03:22:20.486Z,97932.80
2018-07-11T03:24:49.900Z,97935.16
2018-07-11T03:27:19.228Z,97942.56
2018-07-11T03:29:48.572Z,97942.52
2018-07-11T03:32:18.013Z,97939.59
2018-07-11T03:34:47.400Z,97940.03
2018-07-11T03:37:16.724Z,97945.03
2018-07-11T03:39:46.132Z,97940.14
2018-07-11T03:42:15.621Z,97934.48
2018-07-11T03:44:44.946Z,97933.88
2018-07-11T03:47:14.476Z,97941.34
2018-07-11T03:49:43.799Z,97939.20
2018-07-11T03:52:13.099Z,97940.50
2018-07-11T03:54:42.483Z,97944.80
2018-07-11T03:57:11.800Z,97951.08
2018-07-11T03:59:41.176Z,97947.27
2018-07-11T04:02:10.507Z,97945.19
2018-07-11T04:04:39.822Z,97951.25
2018-07-11T04:07:09.172Z,97951.73
2018-07-11T04:09:38.531Z,97952.30
2018-07-11T04:12:07.875Z,97951.97
2018-07-11T04:14:37.183Z,97954.25
2018-07-11T04:17:06.504Z,97956.84
2018-07-11T04:19:35.929Z,97962.50
2018-07-11T04:22:05.366Z,97962.78
2018-07-11T04:24:34.729Z,97963.17
2018-07-11T04:27:04.081Z,97969.91
2018-07-11T04:29:33.499Z,97962.73
2018-07-11T04:32:02.879Z,97970.48
2018-07-11T04:34:32.238Z,97971.30
2018-07-11T04:37:01.620Z,97969.86
2018-07-11T04:39:30.956Z,97971.75
2018-07-11T04:42:00.285Z,97965.67
2018-07-11T04:44:29.641Z,97971.67
2018-07-11T04:46:59.006Z,97965.16
2018-07-11T04:49:28.496Z,97961.61
2018-07-11T04:51:57.611Z,97963.66
2018-07-11T04:54:26.955Z,97963.94
2018-07-11T04:56:56.309Z,97960.81
2018-07-11T04:59:25.628Z,97965.60
2018-07-11T05:01:55.050Z,97969.53
2018-07-11T05:04:24.497Z,97967.52
2018-07-11T05:06:53.816Z,97969.06
2018-07-11T05:09:23.140Z,97970.50
2018-07-11T05:11:52.961Z,97969.19
2018-07-11T05:14:22.463Z,97968.97
2018-07-11T05:16:51.793Z,97977.14
2018-07-11T05:19:21.099Z,97979.47
2018-07-11T05:21:50.437Z,97978.30
2018-07-11T05:24:19.740Z,97982.06
2018-07-11T05:26:49.455Z,97980.45
2018-07-11T05:29:18.781Z,97972.50
2018-07-11T05:31:48.116Z,97983.45
2018-07-11T05:34:17.440Z,97985.58
2018-07-11T05:36:46.744Z,97985.92
2018-07-11T05:39:16.089Z,97985.40
2018-07-11T05:41:45.412Z,97990.30
2018-07-11T05:44:15.010Z,97987.02
2018-07-11T05:46:44.353Z,97987.20
2018-07-11T05:49:13.720Z,97986.79
2018-07-11T05:51:43.032Z,97984.46
2018-07-11T05:54:12.356Z,97986.67
2018-07-11T05:56:41.765Z,97991.97
2018-07-11T05:59:11.144Z,97987.13
2018-07-11T06:01:40.482Z,97990.16
2018-07-11T06:04:09.816Z,97997.63
2018-07-11T06:06:39.129Z,97996.06
2018-07-11T06:09:08.895Z,97996.94
2018-07-11T06:11:38.256Z,97996.12
2018-07-11T06:14:07.563Z,97996.03
2018-07-11T06:16:43.505Z,97998.27
2018-07-11T06:19:12.840Z,98001.81
2018-07-11T06:21:42.899Z,97996.81
2018-07-11T06:24:12.253Z,97995.58
2018-07-11T06:26:41.595Z,97998.63
2018-07-11T06:29:10.952Z,97996.33
2018-07-11T06:31:40.280Z,98000.75
2018-07-11T06:34:09.611Z,98002.83
2018-07-11T06:36:38.938Z,98007.33
2018-07-11T06:39:08.697Z,98013.84
2018-07-11T06:41:38.069Z,98014.98
2018-07-11T06:44:07.403Z,98022.73
2018-07-11T06:46:36.772Z,98015.98
2018-07-11T06:49:06.137Z,98020.14
2018-07-11T06:51:35.679Z,98018.17
2018-07-11T06:54:05.008Z,98025.22
2018-07-11T06:56:34.369Z,98020.64
2018-07-11T06:59:03.839Z,98014.38
2018-07-11T07:01:33.168Z,98019.56
2018-07-11T07:04:02.489Z,98017.70
2018-07-11T07:06:31.556Z,98013.59
2018-07-11T07:09:00.892Z,98014.37
2018-07-11T07:11:30.201Z,98017.30
2018-07-11T07:13:59.556Z,98013.50
2018-07-11T07:16:28.883Z,98012.97
2018-07-11T07:18:58.256Z,98010.67
2018-07-11T07:21:27.637Z,98015.20
2018-07-11T07:23:56.990Z,98015.77
2018-07-11T07:26:26.296Z,98010.69
2018-07-11T07:28:55.708Z,98014.42
2018-07-11T07:31:25.080Z,98004.70
2018-07-11T07:33:54.475Z,98008.62
2018-07-11T07:36:23.872Z,98006.45
2018-07-11T07:38:53.247Z,98005.19
2018-07-11T07:41:22.552Z,98003.17
2018-07-11T07:43:51.888Z,98001.08
2018-07-11T07:46:21.225Z,97999.92
2018-07-11T07:48:50.554Z,97996.63
2018-07-11T07:51:19.899Z,97999.59
2018-07-11T07:53:49.008Z,97994.74
2018-07-11T07:56:18.380Z,97993.02
2018-07-11T07:58:47.740Z,97990.78
2018-07-11T08:01:17.075Z,98002.16
2018-07-11T08:03:46.407Z,97998.72
2018-07-11T08:06:15.772Z,97994.81
2018-07-11T08:08:45.118Z,98004.80
2018-07-11T08:11:14.488Z,98004.02
2018-07-11T08:13:43.836Z,98001.12
2018-07-11T08:16:13.164Z,97994.94
2018-07-11T08:18:42.468Z,98006.53
2018-07-11T08:21:11.853Z,98006.06
2018-07-11T08:23:58.140Z,98006.64
2018-07-11T08:26:44.645Z,98004.25
2018-07-11T08:30:35.099Z,97999.72
2018-07-11T08:33:38.752Z,98005.06
2018-07-11T08:36:23.324Z,98010.81
2018-07-11T08:41:11.904Z,98016.98
2018-07-11T08:43:58.676Z,98010.55
2018-07-11T08:46:44.813Z,98011.44
2018-07-11T08:49:39.619Z,98022.33
2018-07-11T08:55:01.154Z,98016.93
2018-07-11T08:58:53.957Z,98017.77
2018-07-11T09:01:41.616Z,98016.72
2018-07-11T09:04:58.127Z,98017.72
2018-07-11T09:07:51.901Z,98025.27
2018-07-11T09:13:50.229Z,98029.03
2018-07-11T09:21:44.644Z,98032.02
2018-07-11T09:24:47.100Z,98029.16
2018-07-11T09:27:16.479Z,98031.46
2018-07-11T09:29:46.522Z,98028.11
2018-07-11T09:32:16.232Z,98024.95
2018-07-11T09:34:46.469Z,98031.23
2018-07-11T09:37:15.853Z,98032.82
2018-07-11T09:39:45.445Z,98024.91
2018-07-11T09:42:14.816Z,98025.48
2018-07-11T09:44:44.362Z,98025.78
2018-07-11T09:47:18.972Z,98028.04
2018-07-11T09:49:48.427Z,98031.08
2018-07-11T09:52:17.881Z,98035.00
2018-07-11T09:54:47.123Z,98030.39
2018-07-11T09:57:17.176Z,98021.70
2018-07-11T09:59:46.527Z,98025.45
2018-07-11T10:02:15.938Z,98029.60
2018-07-11T10:04:45.280Z,98019.67
2018-07-11T10:07:14.636Z,98018.25
2018-07-11T10:09:44.007Z,98021.23
2018-07-11T10:12:13.319Z,98018.39
2018-07-11T10:14:42.639Z,98015.77
2018-07-11T10:17:11.945Z,98021.70
2018-07-11T10:19:41.303Z,98017.49
2018-07-11T10:22:11.232Z,98014.22
2018-07-11T10:24:40.922Z,98019.45
2018-07-11T10:27:10.243Z,97982.45
2018-07-11T10:29:39.335Z,98023.39
2018-07-11T10:32:08.798Z,98022.50
2018-07-11T10:34:38.140Z,98020.03
2018-07-11T10:37:07.543Z,98016.18
2018-07-11T10:39:36.880Z,98011.64
2018-07-11T10:42:06.192Z,98011.39
2018-07-11T10:44:35.556Z,98000.75
2018-07-11T10:47:10.829Z,98008.79
2018-07-11T10:49:40.325Z,98007.16
2018-07-11T10:52:09.821Z,98019.58
2018-07-11T10:54:39.636Z,98018.09
2018-07-11T10:57:09.033Z,98014.52
2018-07-11T10:59:38.976Z,98024.23
2018-07-11T11:02:08.412Z,98019.94
2018-07-11T11:04:37.777Z,98019.15
2018-07-11T11:07:07.479Z,98011.98
2018-07-11T11:09:37.126Z,98014.33
2018-07-11T11:12:06.482Z,98010.98
2018-07-11T11:14:35.824Z,98011.06
2018-07-11T11:17:05.255Z,98018.97
2018-07-11T11:19:34.633Z,98012.65
2018-07-11T11:22:03.980Z,98013.66
2018-07-11T11:24:33.303Z,98009.52
2018-07-11T11:27:02.663Z,98017.80
2018-07-11T11:29:31.969Z,98015.55
2018-07-11T11:32:01.311Z,98008.98
2018-07-11T11:34:30.624Z,98014.94
2018-07-11T11:36:59.962Z,98008.14
2018-07-11T11:39:29.387Z,98013.08
2018-07-11T11:41:58.836Z,98019.25
2018-07-11T11:44:28.147Z,98026.75
2018-07-11T11:47:01.620Z,98026.73
2018-07-11T11:49:31.717Z,98029.14
2018-07-11T11:52:01.083Z,98031.12
2018-07-11T11:54:30.725Z,98020.78
2018-07-11T11:57:00.052Z,98031.62
2018-07-11T11:59:29.380Z,98026.27
2018-07-11T12:01:58.705Z,98032.31
2018-07-11T12:04:27.748Z,98030.98
2018-07-11T12:06:57.201Z,98035.27
2018-07-11T12:09:26.504Z,98038.67
2018-07-11T12:11:59.059Z,98041.15
2018-07-11T12:14:28.605Z,98041.45
2018-07-11T12:16:58.019Z,98040.48
2018-07-11T12:19:27.419Z,98039.92
2018-07-11T12:21:56.793Z,98041.36
2018-07-11T12:24:26.133Z,98036.81
2018-07-11T12:26:55.469Z,98034.52
2018-07-11T12:29:24.808Z,98038.95
2018-07-11T12:31:54.232Z,98035.41
2018-07-11T12:34:23.564Z,98025.26
2018-07-11T12:36:54.814Z,98029.86
2018-07-11T12:39:24.558Z,98032.84
2018-07-11T12:41:54.093Z,98033.74
2018-07-11T12:44:23.408Z,98029.62
2018-07-11T12:46:52.759Z,98033.62
2018-07-11T12:49:22.138Z,98031.81
2018-07-11T12:51:51.532Z,98031.91
2018-07-11T12:54:20.994Z,98029.20
2018-07-11T12:56:50.331Z,98026.91
2018-07-11T12:59:19.690Z,98025.25
2018-07-11T13:01:49.125Z,98022.48
2018-07-11T13:04:18.460Z,98026.11
2018-07-11T13:06:48.167Z,98019.80
2018-07-11T13:09:17.524Z,98021.50
2018-07-11T13:11:46.855Z,98020.39
2018-07-11T13:14:16.193Z,98020.30
2018-07-11T13:16:45.587Z,98012.50
2018-07-11T13:19:14.898Z,98009.70
2018-07-11T13:21:44.730Z,98007.22
2018-07-11T13:24:14.158Z,98005.05
2018-07-11T13:26:43.807Z,98008.45
2018-07-11T13:29:13.173Z,98005.31
2018-07-11T13:31:42.535Z,97999.45
2018-07-11T13:34:11.904Z,97998.48
2018-07-11T13:36:41.227Z,98000.66
2018-07-11T13:39:19.156Z,97997.02
2018-07-11T13:41:49.392Z,97992.86
2018-07-11T13:44:18.852Z,97994.08
2018-07-11T13:46:48.664Z,97993.91
2018-07-11T13:49:18.036Z,97999.02
2018-07-11T13:51:47.365Z,97998.09
2018-07-11T13:54:16.670Z,97996.18
2018-07-11T13:56:47.079Z,97991.45
2018-07-11T13:59:17.184Z,97994.30
2018-07-11T14:01:46.571Z,97990.31
2018-07-11T14:04:15.968Z,97981.81
2018-07-11T14:06:45.332Z,97980.27
2018-07-11T14:19:25.859Z,97983.15
2018-07-11T14:21:55.840Z,97980.34
2018-07-11T14:24:25.396Z,97978.82
2018-07-11T14:26:55.273Z,97977.20
2018-07-11T14:29:29.032Z,97972.17
2018-07-11T14:31:59.475Z,97980.20
2018-07-11T14:34:28.860Z,97976.86
2018-07-11T14:36:58.315Z,97974.16
2018-07-11T14:39:27.676Z,97970.77
2018-07-11T14:41:57.072Z,97966.83
2018-07-11T14:44:26.461Z,97970.47
2018-07-11T14:46:55.788Z,97972.23
2018-07-11T14:49:25.111Z,97968.45
2018-07-11T14:51:54.642Z,97968.91
2018-07-11T14:54:24.053Z,97969.44
2018-07-11T14:56:53.548Z,97969.76
2018-07-11T14:59:23.392Z,97967.06
2018-07-11T15:01:52.712Z,97969.99
2018-07-11T15:04:22.041Z,97969.80
2018-07-11T15:06:51.415Z,97965.53
2018-07-11T15:09:21.191Z,97968.82
2018-07-11T15:11:50.185Z,97967.63
2018-07-11T15:14:19.540Z,97972.80
2018-07-11T15:16:49.051Z,97968.52
2018-07-11T15:19:18.828Z,97962.17
2018-07-11T15:21:48.211Z,97951.55
2018-07-11T15:24:17.703Z,97959.39
2018-07-11T15:26:47.388Z,97963.97
2018-07-11T15:29:16.760Z,97960.84
2018-07-11T15:31:46.244Z,97958.11
2018-07-11T15:34:15.653Z,97953.37
2018-07-11T15:36:45.035Z,97959.80
2018-07-11T15:39:14.408Z,97961.03
2018-07-11T15:41:43.756Z,97959.55
2018-07-11T15:44:13.116Z,97956.74
2018-07-11T15:46:42.650Z,97958.72
2018-07-11T15:49:12.793Z,97957.33
2018-07-11T15:51:42.856Z,97955.31
2018-07-11T15:54:13.729Z,97944.14
2018-07-11T15:56:44.171Z,97940.91
2018-07-11T15:59:15.805Z,97935.70
2018-07-11T16:01:49.832Z,97939.05
2018-07-11T16:04:51.367Z,97934.08
2018-07-11T16:07:20.792Z,97941.13
2018-07-11T16:09:56.863Z,97937.63
2018-07-11T16:12:26.531Z,97932.55
2018-07-11T16:14:56.644Z,97938.32
2018-07-11T16:17:25.968Z,97938.84
2018-07-11T16:19:55.337Z,97941.66
2018-07-11T16:22:24.670Z,97941.39
2018-07-11T16:24:54.267Z,97956.25
2018-07-11T16:27:23.602Z,97951.94
2018-07-11T16:29:52.916Z,97950.03
2018-07-11T16:32:22.281Z,97950.83
2018-07-11T16:34:51.623Z,97946.97
2018-07-11T16:37:21.214Z,97943.42
2018-07-11T16:39:50.527Z,97938.80
2018-07-11T16:42:20.080Z,97931.44
2018-07-11T16:44:49.904Z,97931.16
2018-07-11T16:47:19.253Z,97928.16
2018-07-11T16:49:49.727Z,97927.77
2018-07-11T16:52:19.092Z,97932.33
2018-07-11T16:54:48.472Z,97928.63
2018-07-11T16:57:27.257Z,97929.31
2018-07-11T17:00:09.368Z,97935.16
2018-07-11T17:02:42.687Z,97933.02
2018-07-11T17:05:15.623Z,97937.64
2018-07-11T17:08:00.437Z,97937.11
2018-07-11T17:10:30.952Z,97940.89
2018-07-11T17:13:12.964Z,97943.86
2018-07-11T17:15:48.176Z,97943.34
2018-07-11T17:18:31.764Z,97951.01
2018-07-11T17:21:06.633Z,97946.77
2018-07-11T17:23:39.717Z,97940.94
2018-07-11T17:26:09.057Z,97941.91
2018-07-11T17:28:38.432Z,97946.14
2018-07-11T17:31:07.791Z,97943.59
2018-07-11T17:33:37.148Z,97945.98
2018-07-11T17:36:06.492Z,97950.16
2018-07-11T17:38:35.895Z,97951.32
2018-07-11T17:41:06.563Z,97951.22
2018-07-11T17:43:39.136Z,97957.98
2018-07-11T17:46:08.976Z,97954.16
2018-07-11T17:48:47.858Z,97961.78
2018-07-11T17:52:21.979Z,97960.38
2018-07-11T17:55:09.492Z,97955.74
2018-07-11T17:57:57.232Z,97959.36
2018-07-11T18:00:55.456Z,97965.69
2018-07-11T18:03:37.863Z,97967.69
2018-07-11T18:06:14.653Z,97967.63
2018-07-11T18:09:11.387Z,97964.19
2018-07-11T18:11:55.817Z,97963.34
2018-07-11T18:14:50.552Z,97964.41
2018-07-11T18:17:31.209Z,97967.02
2018-07-11T18:20:13.104Z,97963.05
2018-07-11T18:22:55.124Z,97968.36
2018-07-11T18:26:48.876Z,97967.16
2018-07-11T18:29:43.689Z,97964.61
2018-07-11T18:32:25.996Z,97970.91
2018-07-11T18:35:16.452Z,97958.02
2018-07-11T18:37:55.852Z,97960.69
2018-07-11T18:40:36.624Z,97962.81
2018-07-11T18:45:25.812Z,97958.49
2018-07-11T18:48:14.721Z,97953.36
2018-07-11T18:51:30.231Z,97955.49
2018-07-11T18:54:15.929Z,97955.90
2018-07-11T18:57:02.527Z,97955.08
2018-07-11T18:59:52.164Z,97956.63
2018-07-11T19:03:41.416Z,97959.28
2018-07-11T19:06:42.917Z,97960.89
2018-07-11T19:09:29.777Z,97962.39
2018-07-11T19:12:12.095Z,97964.85
2018-07-11T19:14:47.750Z,97973.45
2018-07-11T19:17:29.414Z,97967.06
2018-07-11T19:20:16.357Z,97968.56
2018-07-11T19:23:40.753Z,97963.28
2018-07-11T19:26:23.695Z,97966.78
2018-07-11T19:29:58.572Z,97971.89
2018-07-11T19:32:54.981Z,97969.69
2018-07-11T19:35:42.325Z,97965.94
2018-07-11T19:39:32.428Z,97970.04
2018-07-11T19:44:24.284Z,97973.75
2018-07-11T19:49:19.078Z,97976.22
2018-07-11T19:52:00.704Z,97982.39
2018-07-11T19:56:48.536Z,97975.75
2018-07-11T19:59:18.120Z,97971.28
2018-07-11T20:01:47.951Z,97974.81
2018-07-11T20:04:17.420Z,97972.67
2018-07-11T20:06:46.835Z,97968.80
2018-07-11T20:09:16.186Z,97965.20
2018-07-11T20:11:45.552Z,97976.81
2018-07-11T20:14:14.915Z,97975.94
2018-07-11T20:16:44.763Z,97981.13
2018-07-11T20:19:14.212Z,97989.93
2018-07-11T20:21:43.608Z,97988.28
2018-07-11T20:24:13.110Z,97991.52
2018-07-11T20:26:43.747Z,97983.98
2018-07-11T20:29:13.741Z,97984.69
2018-07-11T20:31:43.795Z,97985.62
2018-07-11T20:34:13.159Z,97989.41
2018-07-11T20:36:42.577Z,97995.18
2018-07-11T20:39:12.108Z,97993.10
2018-07-11T20:41:41.688Z,97992.00
2018-07-11T20:44:11.036Z,97992.98
2018-07-11T20:46:40.799Z,97994.69
2018-07-11T20:49:15.393Z,98004.56
2018-07-11T20:51:44.741Z,97999.32
2018-07-11T20:54:14.053Z,97998.77
2018-07-11T20:56:43.426Z,97997.38
2018-07-11T20:59:30.227Z,98003.07
2018-07-11T21:02:16.524Z,97996.05
2018-07-11T21:07:08.484Z,98004.75
2018-07-11T21:09:56.851Z,98012.39
2018-07-11T21:12:55.999Z,98007.23
2018-07-11T21:16:41.219Z,98015.07
2018-07-11T21:19:11.607Z,98023.35
2018-07-11T21:21:42.012Z,98022.00
2018-07-11T21:24:12.232Z,98017.66
2018-07-11T21:26:41.551Z,98020.34
2018-07-11T21:29:10.890Z,98019.95
2018-07-11T21:31:40.296Z,98024.52
2018-07-11T21:34:09.641Z,98023.20
2018-07-11T21:36:38.963Z,98023.05
2018-07-11T21:39:08.287Z,98018.70
2018-07-11T21:41:37.612Z,98018.80
2018-07-11T21:44:06.939Z,98014.59
2018-07-11T21:46:36.320Z,98012.03
2018-07-11T21:49:05.806Z,98017.84
2018-07-11T21:51:35.124Z,98022.42
2018-07-11T21:54:04.496Z,98020.89
2018-07-11T21:56:33.815Z,98024.26
2018-07-11T21:59:03.161Z,98028.55
2018-07-11T22:01:32.517Z,98028.39
2018-07-11T22:04:01.902Z,98032.72
2018-07-11T22:06:31.263Z,98037.44
2018-07-11T22:09:00.583Z,98033.17
2018-07-11T22:11:29.908Z,98037.97
2018-07-11T22:13:59.225Z,98038.05
2018-07-11T22:16:32.217Z,98029.66
2018-07-11T22:19:01.280Z,98035.83
2018-07-11T22:21:28.983Z,98035.00
2018-07-11T22:23:56.711Z,98041.13
2018-07-11T22:26:24.412Z,98048.66
2018-07-11T22:28:52.214Z,98040.98
2018-07-11T22:31:19.940Z,98037.18
2018-07-11T22:33:47.650Z,98042.09
2018-07-11T22:36:15.353Z,98039.97
2018-07-11T22:38:43.071Z,98039.52
2018-07-11T22:41:10.788Z,98040.18
2018-07-11T22:43:38.488Z,98048.83
2018-07-11T22:46:06.209Z,98047.16
2018-07-11T22:48:33.920Z,98042.05
2018-07-11T22:51:01.629Z,98041.23
2018-07-11T22:53:29.348Z,98040.85
2018-07-11T22:55:57.057Z,98041.30
2018-07-11T22:58:24.748Z,98042.52
2018-07-11T23:00:52.471Z,98043.83
2018-07-11T23:03:20.289Z,98033.81
2018-07-11T23:05:47.982Z,98031.23
2018-07-11T23:08:15.734Z,98037.09
2018-07-11T23:10:43.403Z,98034.59
2018-07-11T23:13:11.114Z,98032.13
2018-07-11T23:15:38.833Z,98035.17
2018-07-11T23:18:07.408Z,98039.11
2018-07-11T23:20:35.179Z,98037.65
2018-07-11T23:23:02.828Z,98036.20
2018-07-11T23:25:30.536Z,98035.73
2018-07-11T23:27:58.241Z,98034.50
2018-07-11T23:30:25.972Z,98038.45
2018-07-11T23:32:53.677Z,98040.16
2018-07-11T23:35:21.392Z,98040.67
2018-07-11T23:37:49.112Z,98043.26
2018-07-11T23:40:16.824Z,98046.25
2018-07-11T23:42:44.541Z,98048.83
2018-07-11T23:45:12.256Z,98055.30
2018-07-11T23:47:39.967Z,98056.69
2018-07-11T23:50:07.674Z,98059.67
2018-07-11T23:52:35.400Z,98057.77
2018-07-11T23:55:03.120Z,98057.70
2018-07-11T23:57:30.828Z,98049.73
2018-07-11T23:59:58.551Z,98052.77
